sensor_id;sensor_type;location;lat;lon;timestamp;P1;durP1;ratioP1;P2;durP2;ratioP2
34741;SDS011;20968;42.696;23.360;2024-03-23T00:53:11;83.28;;;38.83;;
34741;SDS011;20968;42.696;23.360;2024-03-23T00:55:37;86.63;;;38.67;;
34741;SDS011;20968;42.696;23.360;2024-03-23T00:58:02;91.63;;;41.30;;
34741;SDS011;20968;42.696;23.360;2024-03-23T01:00:28;88.22;;;41.80;;
34741;SDS011;20968;42.696;23.360;2024-03-23T01:02:53;81.75;;;38.45;;
34741;SDS011;20968;42.696;23.360;2024-03-23T01:05:18;80.68;;;44.10;;
34741;SDS011;20968;42.696;23.360;2024-03-23T01:07:44;82.88;;;42.28;;
34741;SDS011;20968;42.696;23.360;2024-03-23T01:10:09;87.38;;;41.80;;
34741;SDS011;20968;42.696;23.360;2024-03-23T01:12:35;80.32;;;40.60;;
34741;SDS011;20968;42.696;23.360;2024-03-23T01:15:00;81.82;;;43.60;;
34741;SDS011;20968;42.696;23.360;2024-03-23T01:17:25;80.45;;;40.33;;
34741;SDS011;20968;42.696;23.360;2024-03-23T01:19:51;82.60;;;40.35;;
34741;SDS011;20968;42.696;23.360;2024-03-23T01:22:16;85.30;;;41.53;;
34741;SDS011;20968;42.696;23.360;2024-03-23T01:24:41;81.32;;;37.92;;
34741;SDS011;20968;42.696;23.360;2024-03-23T01:27:07;87.45;;;42.88;;
34741;SDS011;20968;42.696;23.360;2024-03-23T01:29:33;91.70;;;43.15;;
34741;SDS011;20968;42.696;23.360;2024-03-23T01:31:59;89.22;;;43.05;;
34741;SDS011;20968;42.696;23.360;2024-03-23T01:34:24;88.03;;;44.30;;
34741;SDS011;20968;42.696;23.360;2024-03-23T01:36:50;79.68;;;40.42;;
34741;SDS011;20968;42.696;23.360;2024-03-23T01:39:16;90.15;;;42.10;;
34741;SDS011;20968;42.696;23.360;2024-03-23T01:41:41;83.28;;;38.70;;
34741;SDS011;20968;42.696;23.360;2024-03-23T01:44:08;74.57;;;37.40;;
34741;SDS011;20968;42.696;23.360;2024-03-23T01:46:34;81.93;;;44.55;;
34741;SDS011;20968;42.696;23.360;2024-03-23T01:49:06;80.03;;;40.90;;
34741;SDS011;20968;42.696;23.360;2024-03-23T01:51:32;82.60;;;35.00;;
34741;SDS011;20968;42.696;23.360;2024-03-23T01:53:58;77.40;;;39.25;;
34741;SDS011;20968;42.696;23.360;2024-03-23T01:56:31;78.25;;;38.28;;
34741;SDS011;20968;42.696;23.360;2024-03-23T01:58:58;81.47;;;40.30;;
34741;SDS011;20968;42.696;23.360;2024-03-23T02:01:24;77.43;;;38.25;;
34741;SDS011;20968;42.696;23.360;2024-03-23T02:03:50;80.70;;;39.88;;
34741;SDS011;20968;42.696;23.360;2024-03-23T02:06:15;76.65;;;38.08;;
34741;SDS011;20968;42.696;23.360;2024-03-23T02:08:41;74.45;;;39.03;;
34741;SDS011;20968;42.696;23.360;2024-03-23T02:11:06;76.03;;;38.92;;
34741;SDS011;20968;42.696;23.360;2024-03-23T02:13:32;72.40;;;32.75;;
34741;SDS011;20968;42.696;23.360;2024-03-23T02:15:57;77.50;;;37.13;;
34741;SDS011;20968;42.696;23.360;2024-03-23T02:18:23;80.18;;;38.95;;
34741;SDS011;20968;42.696;23.360;2024-03-23T02:20:48;77.93;;;38.83;;
34741;SDS011;20968;42.696;23.360;2024-03-23T02:23:17;77.13;;;39.83;;
34741;SDS011;20968;42.696;23.360;2024-03-23T02:25:43;79.53;;;41.25;;
34741;SDS011;20968;42.696;23.360;2024-03-23T02:28:08;76.47;;;38.90;;
34741;SDS011;20968;42.696;23.360;2024-03-23T02:30:34;78.72;;;38.80;;
34741;SDS011;20968;42.696;23.360;2024-03-23T02:33:00;83.88;;;38.90;;
34741;SDS011;20968;42.696;23.360;2024-03-23T02:35:25;74.75;;;38.55;;
34741;SDS011;20968;42.696;23.360;2024-03-23T02:37:51;81.40;;;37.88;;
34741;SDS011;20968;42.696;23.360;2024-03-23T02:40:16;81.25;;;40.33;;
34741;SDS011;20968;42.696;23.360;2024-03-23T02:42:42;84.80;;;40.90;;
34741;SDS011;20968;42.696;23.360;2024-03-23T02:45:08;76.20;;;40.40;;
34741;SDS011;20968;42.696;23.360;2024-03-23T02:47:35;78.90;;;39.05;;
34741;SDS011;20968;42.696;23.360;2024-03-23T02:50:00;81.43;;;37.72;;
34741;SDS011;20968;42.696;23.360;2024-03-23T02:52:26;75.22;;;41.97;;
34741;SDS011;20968;42.696;23.360;2024-03-23T02:54:52;77.43;;;36.45;;
34741;SDS011;20968;42.696;23.360;2024-03-23T02:57:18;73.55;;;39.00;;
34741;SDS011;20968;42.696;23.360;2024-03-23T02:59:43;74.50;;;31.00;;
34741;SDS011;20968;42.696;23.360;2024-03-23T03:02:09;73.18;;;36.00;;
34741;SDS011;20968;42.696;23.360;2024-03-23T03:04:34;69.90;;;35.25;;
34741;SDS011;20968;42.696;23.360;2024-03-23T03:07:00;70.25;;;38.47;;
34741;SDS011;20968;42.696;23.360;2024-03-23T03:09:25;76.40;;;39.78;;
34741;SDS011;20968;42.696;23.360;2024-03-23T03:11:50;75.18;;;38.63;;
34741;SDS011;20968;42.696;23.360;2024-03-23T03:14:16;74.15;;;41.05;;
34741;SDS011;20968;42.696;23.360;2024-03-23T03:16:41;71.65;;;43.17;;
34741;SDS011;20968;42.696;23.360;2024-03-23T03:19:06;75.93;;;35.58;;
34741;SDS011;20968;42.696;23.360;2024-03-23T03:21:32;76.18;;;34.65;;
34741;SDS011;20968;42.696;23.360;2024-03-23T03:23:57;73.18;;;38.33;;
34741;SDS011;20968;42.696;23.360;2024-03-23T03:26:23;67.32;;;36.83;;
34741;SDS011;20968;42.696;23.360;2024-03-23T03:28:49;73.50;;;38.70;;
34741;SDS011;20968;42.696;23.360;2024-03-23T03:31:15;68.72;;;38.97;;
34741;SDS011;20968;42.696;23.360;2024-03-23T03:33:41;72.18;;;34.92;;
34741;SDS011;20968;42.696;23.360;2024-03-23T03:36:07;73.35;;;33.97;;
34741;SDS011;20968;42.696;23.360;2024-03-23T03:38:32;76.85;;;35.42;;
34741;SDS011;20968;42.696;23.360;2024-03-23T03:41:00;84.35;;;38.50;;
34741;SDS011;20968;42.696;23.360;2024-03-23T03:43:25;74.65;;;34.75;;
34741;SDS011;20968;42.696;23.360;2024-03-23T03:45:54;75.78;;;43.28;;
34741;SDS011;20968;42.696;23.360;2024-03-23T03:48:21;78.65;;;37.28;;
34741;SDS011;20968;42.696;23.360;2024-03-23T03:50:47;67.57;;;36.80;;
34741;SDS011;20968;42.696;23.360;2024-03-23T03:53:12;68.32;;;36.85;;
34741;SDS011;20968;42.696;23.360;2024-03-23T03:55:37;68.97;;;34.03;;
34741;SDS011;20968;42.696;23.360;2024-03-23T03:58:03;77.70;;;38.83;;
34741;SDS011;20968;42.696;23.360;2024-03-23T04:00:29;67.55;;;38.08;;
34741;SDS011;20968;42.696;23.360;2024-03-23T04:02:55;71.57;;;35.15;;
34741;SDS011;20968;42.696;23.360;2024-03-23T04:05:21;67.57;;;32.78;;
34741;SDS011;20968;42.696;23.360;2024-03-23T04:07:47;64.53;;;34.08;;
34741;SDS011;20968;42.696;23.360;2024-03-23T04:10:12;69.38;;;34.63;;
34741;SDS011;20968;42.696;23.360;2024-03-23T04:12:38;70.20;;;36.67;;
34741;SDS011;20968;42.696;23.360;2024-03-23T04:15:03;67.90;;;32.72;;
34741;SDS011;20968;42.696;23.360;2024-03-23T04:17:30;66.63;;;37.25;;
34741;SDS011;20968;42.696;23.360;2024-03-23T04:19:58;68.05;;;36.30;;
34741;SDS011;20968;42.696;23.360;2024-03-23T04:22:23;70.93;;;36.65;;
34741;SDS011;20968;42.696;23.360;2024-03-23T04:25:00;70.03;;;37.85;;
34741;SDS011;20968;42.696;23.360;2024-03-23T04:27:31;65.95;;;35.75;;
34741;SDS011;20968;42.696;23.360;2024-03-23T04:29:59;69.38;;;35.47;;
34741;SDS011;20968;42.696;23.360;2024-03-23T04:32:28;69.97;;;36.67;;
34741;SDS011;20968;42.696;23.360;2024-03-23T04:34:54;65.70;;;31.65;;
34741;SDS011;20968;42.696;23.360;2024-03-23T04:37:20;72.05;;;34.97;;
34741;SDS011;20968;42.696;23.360;2024-03-23T04:39:45;65.82;;;40.90;;
34741;SDS011;20968;42.696;23.360;2024-03-23T04:42:11;69.85;;;33.25;;
34741;SDS011;20968;42.696;23.360;2024-03-23T04:44:37;70.38;;;37.00;;
34741;SDS011;20968;42.696;23.360;2024-03-23T04:47:03;67.97;;;36.80;;
34741;SDS011;20968;42.696;23.360;2024-03-23T04:49:28;73.20;;;36.92;;
34741;SDS011;20968;42.696;23.360;2024-03-23T04:51:54;78.10;;;33.05;;
34741;SDS011;20968;42.696;23.360;2024-03-23T04:54:19;69.53;;;40.58;;
34741;SDS011;20968;42.696;23.360;2024-03-23T04:56:45;66.00;;;35.33;;
34741;SDS011;20968;42.696;23.360;2024-03-23T04:59:12;76.10;;;38.72;;
34741;SDS011;20968;42.696;23.360;2024-03-23T05:01:37;71.13;;;39.47;;
34741;SDS011;20968;42.696;23.360;2024-03-23T05:04:05;63.75;;;36.92;;
34741;SDS011;20968;42.696;23.360;2024-03-23T05:06:30;64.65;;;39.17;;
34741;SDS011;20968;42.696;23.360;2024-03-23T05:08:56;68.63;;;31.70;;
34741;SDS011;20968;42.696;23.360;2024-03-23T05:11:21;63.88;;;32.65;;
34741;SDS011;20968;42.696;23.360;2024-03-23T05:13:46;65.35;;;33.50;;
34741;SDS011;20968;42.696;23.360;2024-03-23T05:16:12;66.78;;;38.55;;
34741;SDS011;20968;42.696;23.360;2024-03-23T05:18:37;70.53;;;34.05;;
34741;SDS011;20968;42.696;23.360;2024-03-23T05:21:03;70.75;;;35.20;;
34741;SDS011;20968;42.696;23.360;2024-03-23T05:23:28;75.05;;;32.58;;
34741;SDS011;20968;42.696;23.360;2024-03-23T05:25:54;67.55;;;34.33;;
34741;SDS011;20968;42.696;23.360;2024-03-23T05:28:21;79.30;;;35.25;;
34741;SDS011;20968;42.696;23.360;2024-03-23T05:30:50;74.50;;;35.60;;
34741;SDS011;20968;42.696;23.360;2024-03-23T05:33:17;72.07;;;33.83;;
34741;SDS011;20968;42.696;23.360;2024-03-23T05:35:44;85.28;;;37.22;;
34741;SDS011;20968;42.696;23.360;2024-03-23T05:38:09;76.03;;;35.38;;
34741;SDS011;20968;42.696;23.360;2024-03-23T05:40:35;84.00;;;37.70;;
34741;SDS011;20968;42.696;23.360;2024-03-23T05:43:02;78.63;;;39.55;;
34741;SDS011;20968;42.696;23.360;2024-03-23T05:45:28;79.78;;;38.97;;
34741;SDS011;20968;42.696;23.360;2024-03-23T05:47:54;76.85;;;37.35;;
34741;SDS011;20968;42.696;23.360;2024-03-23T05:50:21;76.45;;;41.08;;
34741;SDS011;20968;42.696;23.360;2024-03-23T05:52:47;76.93;;;35.88;;
34741;SDS011;20968;42.696;23.360;2024-03-23T05:55:12;78.93;;;38.70;;
34741;SDS011;20968;42.696;23.360;2024-03-23T05:57:38;79.05;;;40.13;;
34741;SDS011;20968;42.696;23.360;2024-03-23T06:00:04;81.82;;;35.13;;
34741;SDS011;20968;42.696;23.360;2024-03-23T06:02:35;74.00;;;37.47;;
34741;SDS011;20968;42.696;23.360;2024-03-23T06:05:00;80.68;;;40.55;;
34741;SDS011;20968;42.696;23.360;2024-03-23T06:07:27;79.05;;;34.45;;
34741;SDS011;20968;42.696;23.360;2024-03-23T06:09:52;80.93;;;37.10;;
34741;SDS011;20968;42.696;23.360;2024-03-23T06:12:18;79.63;;;43.45;;
34741;SDS011;20968;42.696;23.360;2024-03-23T06:14:44;73.55;;;38.22;;
34741;SDS011;20968;42.696;23.360;2024-03-23T06:17:09;78.32;;;38.45;;
34741;SDS011;20968;42.696;23.360;2024-03-23T06:19:34;77.28;;;41.20;;
34741;SDS011;20968;42.696;23.360;2024-03-23T06:22:00;75.70;;;39.30;;
34741;SDS011;20968;42.696;23.360;2024-03-23T06:24:25;75.53;;;39.22;;
34741;SDS011;20968;42.696;23.360;2024-03-23T06:26:51;78.63;;;39.10;;
34741;SDS011;20968;42.696;23.360;2024-03-23T06:29:16;74.75;;;33.95;;
34741;SDS011;20968;42.696;23.360;2024-03-23T06:31:41;78.70;;;37.83;;
34741;SDS011;20968;42.696;23.360;2024-03-23T06:34:07;83.07;;;37.58;;
34741;SDS011;20968;42.696;23.360;2024-03-23T06:36:32;77.53;;;37.42;;
34741;SDS011;20968;42.696;23.360;2024-03-23T06:38:58;76.78;;;41.45;;
34741;SDS011;20968;42.696;23.360;2024-03-23T06:41:23;84.97;;;38.00;;
34741;SDS011;20968;42.696;23.360;2024-03-23T06:43:49;76.85;;;35.80;;
34741;SDS011;20968;42.696;23.360;2024-03-23T06:46:15;74.93;;;40.00;;
34741;SDS011;20968;42.696;23.360;2024-03-23T06:48:40;81.00;;;35.75;;
34741;SDS011;20968;42.696;23.360;2024-03-23T06:51:05;75.75;;;34.17;;
34741;SDS011;20968;42.696;23.360;2024-03-23T06:53:31;75.65;;;36.72;;
34741;SDS011;20968;42.696;23.360;2024-03-23T06:55:57;80.57;;;36.08;;
34741;SDS011;20968;42.696;23.360;2024-03-23T06:58:23;74.25;;;39.78;;
34741;SDS011;20968;42.696;23.360;2024-03-23T07:00:50;74.40;;;39.85;;
34741;SDS011;20968;42.696;23.360;2024-03-23T07:03:19;75.25;;;38.42;;
34741;SDS011;20968;42.696;23.360;2024-03-23T07:05:46;76.00;;;40.13;;
34741;SDS011;20968;42.696;23.360;2024-03-23T07:08:12;78.50;;;37.67;;
34741;SDS011;20968;42.696;23.360;2024-03-23T07:10:40;77.10;;;38.00;;
34741;SDS011;20968;42.696;23.360;2024-03-23T07:13:06;79.07;;;38.17;;
34741;SDS011;20968;42.696;23.360;2024-03-23T07:15:32;75.00;;;34.72;;
34741;SDS011;20968;42.696;23.360;2024-03-23T07:17:57;79.28;;;39.33;;
34741;SDS011;20968;42.696;23.360;2024-03-23T07:20:22;72.15;;;37.85;;
34741;SDS011;20968;42.696;23.360;2024-03-23T07:22:48;76.22;;;39.05;;
34741;SDS011;20968;42.696;23.360;2024-03-23T07:25:14;79.40;;;38.80;;
34741;SDS011;20968;42.696;23.360;2024-03-23T07:27:39;82.18;;;38.97;;
34741;SDS011;20968;42.696;23.360;2024-03-23T07:30:05;78.57;;;41.15;;
34741;SDS011;20968;42.696;23.360;2024-03-23T07:32:31;76.57;;;39.95;;
34741;SDS011;20968;42.696;23.360;2024-03-23T07:34:57;74.25;;;32.03;;
34741;SDS011;20968;42.696;23.360;2024-03-23T07:37:22;76.97;;;35.65;;
34741;SDS011;20968;42.696;23.360;2024-03-23T07:39:47;76.78;;;30.52;;
34741;SDS011;20968;42.696;23.360;2024-03-23T07:42:13;74.30;;;36.33;;
34741;SDS011;20968;42.696;23.360;2024-03-23T07:44:39;75.22;;;34.08;;
34741;SDS011;20968;42.696;23.360;2024-03-23T07:47:05;77.55;;;32.97;;
34741;SDS011;20968;42.696;23.360;2024-03-23T07:49:30;75.85;;;33.25;;
34741;SDS011;20968;42.696;23.360;2024-03-23T07:51:55;74.68;;;35.97;;
34741;SDS011;20968;42.696;23.360;2024-03-23T07:54:21;72.13;;;35.47;;
34741;SDS011;20968;42.696;23.360;2024-03-23T07:56:46;75.60;;;33.33;;
34741;SDS011;20968;42.696;23.360;2024-03-23T07:59:11;69.13;;;32.17;;
34741;SDS011;20968;42.696;23.360;2024-03-23T08:01:37;70.97;;;33.90;;
34741;SDS011;20968;42.696;23.360;2024-03-23T08:04:02;72.43;;;34.05;;
34741;SDS011;20968;42.696;23.360;2024-03-23T08:06:28;71.82;;;32.55;;
34741;SDS011;20968;42.696;23.360;2024-03-23T08:08:57;74.35;;;34.33;;
34741;SDS011;20968;42.696;23.360;2024-03-23T08:11:26;67.45;;;34.50;;
34741;SDS011;20968;42.696;23.360;2024-03-23T08:13:55;74.43;;;31.40;;
34741;SDS011;20968;42.696;23.360;2024-03-23T08:16:21;74.32;;;37.05;;
34741;SDS011;20968;42.696;23.360;2024-03-23T08:18:47;69.97;;;32.58;;
34741;SDS011;20968;42.696;23.360;2024-03-23T08:21:13;77.78;;;32.13;;
34741;SDS011;20968;42.696;23.360;2024-03-23T08:23:39;72.13;;;34.03;;
34741;SDS011;20968;42.696;23.360;2024-03-23T08:26:05;72.40;;;34.83;;
34741;SDS011;20968;42.696;23.360;2024-03-23T08:28:32;76.78;;;36.67;;
34741;SDS011;20968;42.696;23.360;2024-03-23T08:31:00;77.38;;;30.92;;
34741;SDS011;20968;42.696;23.360;2024-03-23T08:33:30;74.30;;;34.50;;
34741;SDS011;20968;42.696;23.360;2024-03-23T08:35:56;71.18;;;33.63;;
34741;SDS011;20968;42.696;23.360;2024-03-23T08:38:23;76.57;;;33.75;;
34741;SDS011;20968;42.696;23.360;2024-03-23T08:40:58;76.85;;;34.90;;
34741;SDS011;20968;42.696;23.360;2024-03-23T08:43:25;71.80;;;35.05;;
34741;SDS011;20968;42.696;23.360;2024-03-23T08:45:51;72.22;;;32.45;;
34741;SDS011;20968;42.696;23.360;2024-03-23T08:48:17;70.15;;;30.55;;
34741;SDS011;20968;42.696;23.360;2024-03-23T08:50:43;75.03;;;33.75;;
34741;SDS011;20968;42.696;23.360;2024-03-23T08:53:08;70.35;;;33.40;;
34741;SDS011;20968;42.696;23.360;2024-03-23T08:55:34;69.95;;;28.80;;
34741;SDS011;20968;42.696;23.360;2024-03-23T08:58:00;72.25;;;29.58;;
34741;SDS011;20968;42.696;23.360;2024-03-23T09:00:26;68.05;;;32.72;;
34741;SDS011;20968;42.696;23.360;2024-03-23T09:02:51;71.00;;;35.58;;
34741;SDS011;20968;42.696;23.360;2024-03-23T09:05:18;70.97;;;31.88;;
34741;SDS011;20968;42.696;23.360;2024-03-23T09:07:43;68.68;;;31.00;;
34741;SDS011;20968;42.696;23.360;2024-03-23T09:10:08;68.95;;;34.38;;
34741;SDS011;20968;42.696;23.360;2024-03-23T09:12:34;69.22;;;34.17;;
34741;SDS011;20968;42.696;23.360;2024-03-23T09:14:59;72.20;;;35.80;;
34741;SDS011;20968;42.696;23.360;2024-03-23T09:17:24;70.18;;;31.35;;
34741;SDS011;20968;42.696;23.360;2024-03-23T09:19:51;75.60;;;30.30;;
34741;SDS011;20968;42.696;23.360;2024-03-23T09:22:20;70.63;;;29.63;;
34741;SDS011;20968;42.696;23.360;2024-03-23T09:24:45;66.68;;;31.15;;
34741;SDS011;20968;42.696;23.360;2024-03-23T09:27:10;69.60;;;29.75;;
34741;SDS011;20968;42.696;23.360;2024-03-23T09:29:36;76.32;;;32.97;;
34741;SDS011;20968;42.696;23.360;2024-03-23T09:32:01;68.97;;;30.20;;
34741;SDS011;20968;42.696;23.360;2024-03-23T09:34:26;68.60;;;32.58;;
34741;SDS011;20968;42.696;23.360;2024-03-23T09:36:52;74.30;;;34.88;;
34741;SDS011;20968;42.696;23.360;2024-03-23T09:39:17;70.07;;;34.72;;
34741;SDS011;20968;42.696;23.360;2024-03-23T09:41:44;67.45;;;31.58;;
34741;SDS011;20968;42.696;23.360;2024-03-23T09:44:10;66.00;;;31.92;;
34741;SDS011;20968;42.696;23.360;2024-03-23T09:46:35;68.50;;;31.25;;
34741;SDS011;20968;42.696;23.360;2024-03-23T09:49:01;68.10;;;30.88;;
34741;SDS011;20968;42.696;23.360;2024-03-23T09:51:29;69.68;;;28.75;;
34741;SDS011;20968;42.696;23.360;2024-03-23T09:53:55;66.53;;;30.92;;
34741;SDS011;20968;42.696;23.360;2024-03-23T09:56:22;66.85;;;30.58;;
34741;SDS011;20968;42.696;23.360;2024-03-23T09:58:48;65.43;;;29.92;;
34741;SDS011;20968;42.696;23.360;2024-03-23T10:01:14;67.88;;;35.08;;
34741;SDS011;20968;42.696;23.360;2024-03-23T10:03:45;68.28;;;32.17;;
34741;SDS011;20968;42.696;23.360;2024-03-23T10:06:11;70.60;;;30.45;;
34741;SDS011;20968;42.696;23.360;2024-03-23T10:08:36;69.55;;;29.38;;
34741;SDS011;20968;42.696;23.360;2024-03-23T10:11:14;65.50;;;29.73;;
34741;SDS011;20968;42.696;23.360;2024-03-23T10:13:42;67.45;;;31.75;;
34741;SDS011;20968;42.696;23.360;2024-03-23T10:16:09;69.63;;;29.50;;
34741;SDS011;20968;42.696;23.360;2024-03-23T10:18:38;74.95;;;30.27;;
34741;SDS011;20968;42.696;23.360;2024-03-23T10:23:34;67.70;;;33.72;;
34741;SDS011;20968;42.696;23.360;2024-03-23T10:26:17;66.60;;;30.75;;
34741;SDS011;20968;42.696;23.360;2024-03-23T10:28:56;65.93;;;32.03;;
34741;SDS011;20968;42.696;23.360;2024-03-23T10:31:32;66.78;;;32.15;;
34741;SDS011;20968;42.696;23.360;2024-03-23T10:33:58;72.45;;;31.35;;
34741;SDS011;20968;42.696;23.360;2024-03-23T10:36:26;70.72;;;28.77;;
34741;SDS011;20968;42.696;23.360;2024-03-23T10:38:51;66.32;;;31.45;;
34741;SDS011;20968;42.696;23.360;2024-03-23T10:41:20;75.68;;;30.52;;
34741;SDS011;20968;42.696;23.360;2024-03-23T10:43:46;67.55;;;32.97;;
34741;SDS011;20968;42.696;23.360;2024-03-23T10:46:13;68.88;;;37.22;;
34741;SDS011;20968;42.696;23.360;2024-03-23T10:48:39;71.28;;;30.40;;
34741;SDS011;20968;42.696;23.360;2024-03-23T10:51:08;72.35;;;34.22;;
34741;SDS011;20968;42.696;23.360;2024-03-23T10:53:34;67.35;;;31.45;;
34741;SDS011;20968;42.696;23.360;2024-03-23T10:56:02;68.55;;;29.55;;
34741;SDS011;20968;42.696;23.360;2024-03-23T10:58:30;70.47;;;30.50;;
34741;SDS011;20968;42.696;23.360;2024-03-23T11:00:58;67.45;;;33.15;;
34741;SDS011;20968;42.696;23.360;2024-03-23T11:05:56;68.60;;;29.55;;
34741;SDS011;20968;42.696;23.360;2024-03-23T11:08:30;67.65;;;33.38;;
34741;SDS011;20968;42.696;23.360;2024-03-23T11:11:18;69.10;;;32.17;;
34741;SDS011;20968;42.696;23.360;2024-03-23T11:13:49;68.20;;;33.30;;
34741;SDS011;20968;42.696;23.360;2024-03-23T11:16:25;70.70;;;28.95;;
34741;SDS011;20968;42.696;23.360;2024-03-23T11:18:53;63.92;;;30.38;;
34741;SDS011;20968;42.696;23.360;2024-03-23T11:22:04;69.13;;;30.15;;
34741;SDS011;20968;42.696;23.360;2024-03-23T11:24:20;68.93;;;28.05;;
34741;SDS011;20968;42.696;23.360;2024-03-23T11:26:47;65.30;;;30.58;;
34741;SDS011;20968;42.696;23.360;2024-03-23T11:29:13;66.57;;;32.03;;
34741;SDS011;20968;42.696;23.360;2024-03-23T11:31:49;69.10;;;27.38;;
34741;SDS011;20968;42.696;23.360;2024-03-23T11:34:16;65.22;;;27.17;;
34741;SDS011;20968;42.696;23.360;2024-03-23T11:36:42;65.38;;;30.85;;
34741;SDS011;20968;42.696;23.360;2024-03-23T11:39:18;67.13;;;28.02;;
34741;SDS011;20968;42.696;23.360;2024-03-23T11:41:55;62.65;;;31.00;;
34741;SDS011;20968;42.696;23.360;2024-03-23T11:44:25;64.82;;;30.15;;
34741;SDS011;20968;42.696;23.360;2024-03-23T11:46:51;67.00;;;27.42;;
34741;SDS011;20968;42.696;23.360;2024-03-23T11:49:27;67.15;;;30.17;;
34741;SDS011;20968;42.696;23.360;2024-03-23T11:51:54;62.60;;;30.25;;
34741;SDS011;20968;42.696;23.360;2024-03-23T11:54:21;65.78;;;29.73;;
34741;SDS011;20968;42.696;23.360;2024-03-23T11:56:57;70.68;;;30.08;;
34741;SDS011;20968;42.696;23.360;2024-03-23T11:59:39;67.82;;;31.88;;
34741;SDS011;20968;42.696;23.360;2024-03-23T12:02:06;64.18;;;31.92;;
34741;SDS011;20968;42.696;23.360;2024-03-23T12:04:31;67.32;;;30.17;;
34741;SDS011;20968;42.696;23.360;2024-03-23T12:07:16;68.00;;;28.63;;
34741;SDS011;20968;42.696;23.360;2024-03-23T12:09:45;69.50;;;35.65;;
34741;SDS011;20968;42.696;23.360;2024-03-23T12:12:16;66.07;;;30.33;;
34741;SDS011;20968;42.696;23.360;2024-03-23T12:14:42;61.90;;;35.15;;
34741;SDS011;20968;42.696;23.360;2024-03-23T12:17:09;65.32;;;27.70;;
34741;SDS011;20968;42.696;23.360;2024-03-23T12:19:35;64.18;;;32.47;;
34741;SDS011;20968;42.696;23.360;2024-03-23T12:22:02;68.22;;;31.73;;
34741;SDS011;20968;42.696;23.360;2024-03-23T12:24:28;64.25;;;29.00;;
34741;SDS011;20968;42.696;23.360;2024-03-23T12:26:54;65.68;;;30.75;;
34741;SDS011;20968;42.696;23.360;2024-03-23T12:29:20;62.47;;;29.65;;
34741;SDS011;20968;42.696;23.360;2024-03-23T12:31:45;66.43;;;27.98;;
34741;SDS011;20968;42.696;23.360;2024-03-23T12:34:10;63.25;;;30.27;;
34741;SDS011;20968;42.696;23.360;2024-03-23T12:36:36;65.50;;;30.05;;
34741;SDS011;20968;42.696;23.360;2024-03-23T12:39:01;64.63;;;30.13;;
34741;SDS011;20968;42.696;23.360;2024-03-23T12:41:27;65.45;;;31.10;;
34741;SDS011;20968;42.696;23.360;2024-03-23T12:43:52;61.65;;;29.70;;
34741;SDS011;20968;42.696;23.360;2024-03-23T12:46:17;65.90;;;28.30;;
34741;SDS011;20968;42.696;23.360;2024-03-23T12:48:44;61.00;;;29.63;;
34741;SDS011;20968;42.696;23.360;2024-03-23T12:51:10;60.33;;;28.65;;
34741;SDS011;20968;42.696;23.360;2024-03-23T12:53:35;68.82;;;34.22;;
34741;SDS011;20968;42.696;23.360;2024-03-23T12:56:00;63.92;;;27.75;;
34741;SDS011;20968;42.696;23.360;2024-03-23T12:58:26;64.00;;;35.17;;
34741;SDS011;20968;42.696;23.360;2024-03-23T13:00:52;62.00;;;30.92;;
34741;SDS011;20968;42.696;23.360;2024-03-23T13:03:17;63.05;;;31.15;;
34741;SDS011;20968;42.696;23.360;2024-03-23T13:05:42;68.45;;;31.92;;
34741;SDS011;20968;42.696;23.360;2024-03-23T13:08:08;63.13;;;32.47;;
34741;SDS011;20968;42.696;23.360;2024-03-23T13:10:33;61.45;;;31.25;;
34741;SDS011;20968;42.696;23.360;2024-03-23T13:12:58;66.25;;;32.35;;
34741;SDS011;20968;42.696;23.360;2024-03-23T13:15:24;64.55;;;28.88;;
34741;SDS011;20968;42.696;23.360;2024-03-23T13:17:49;69.53;;;29.60;;
34741;SDS011;20968;42.696;23.360;2024-03-23T13:20:15;66.05;;;29.48;;
34741;SDS011;20968;42.696;23.360;2024-03-23T13:22:41;65.03;;;29.45;;
34741;SDS011;20968;42.696;23.360;2024-03-23T13:25:07;61.65;;;28.35;;
34741;SDS011;20968;42.696;23.360;2024-03-23T13:27:32;64.40;;;31.70;;
34741;SDS011;20968;42.696;23.360;2024-03-23T13:29:58;62.97;;;27.63;;
34741;SDS011;20968;42.696;23.360;2024-03-23T13:32:23;61.50;;;28.70;;
34741;SDS011;20968;42.696;23.360;2024-03-23T13:34:49;64.05;;;26.02;;
34741;SDS011;20968;42.696;23.360;2024-03-23T13:37:15;62.83;;;30.13;;
34741;SDS011;20968;42.696;23.360;2024-03-23T13:39:41;60.25;;;26.73;;
34741;SDS011;20968;42.696;23.360;2024-03-23T13:42:09;61.13;;;28.23;;
34741;SDS011;20968;42.696;23.360;2024-03-23T13:44:34;61.33;;;31.33;;
34741;SDS011;20968;42.696;23.360;2024-03-23T13:47:00;62.90;;;32.95;;
34741;SDS011;20968;42.696;23.360;2024-03-23T13:49:26;60.80;;;27.83;;
34741;SDS011;20968;42.696;23.360;2024-03-23T13:51:56;62.25;;;31.52;;
34741;SDS011;20968;42.696;23.360;2024-03-23T13:54:25;59.75;;;30.65;;
34741;SDS011;20968;42.696;23.360;2024-03-23T13:56:51;62.78;;;27.75;;
34741;SDS011;20968;42.696;23.360;2024-03-23T13:59:17;61.00;;;31.20;;
34741;SDS011;20968;42.696;23.360;2024-03-23T14:01:44;66.65;;;33.50;;
34741;SDS011;20968;42.696;23.360;2024-03-23T14:04:10;61.90;;;27.98;;
34741;SDS011;20968;42.696;23.360;2024-03-23T14:06:36;59.03;;;26.70;;
34741;SDS011;20968;42.696;23.360;2024-03-23T14:09:01;60.03;;;27.90;;
34741;SDS011;20968;42.696;23.360;2024-03-23T14:11:28;67.40;;;37.33;;
34741;SDS011;20968;42.696;23.360;2024-03-23T14:13:54;59.17;;;31.05;;
34741;SDS011;20968;42.696;23.360;2024-03-23T14:16:20;68.75;;;32.38;;
34741;SDS011;20968;42.696;23.360;2024-03-23T14:18:48;64.72;;;34.20;;
34741;SDS011;20968;42.696;23.360;2024-03-23T14:21:13;59.45;;;31.83;;
34741;SDS011;20968;42.696;23.360;2024-03-23T14:23:38;59.60;;;32.45;;
34741;SDS011;20968;42.696;23.360;2024-03-23T14:26:05;60.13;;;29.25;;
34741;SDS011;20968;42.696;23.360;2024-03-23T14:28:31;58.58;;;30.60;;
34741;SDS011;20968;42.696;23.360;2024-03-23T14:30:57;57.65;;;33.90;;
34741;SDS011;20968;42.696;23.360;2024-03-23T14:33:22;63.17;;;30.02;;
34741;SDS011;20968;42.696;23.360;2024-03-23T14:35:55;62.88;;;33.83;;
34741;SDS011;20968;42.696;23.360;2024-03-23T14:38:24;62.63;;;29.27;;
34741;SDS011;20968;42.696;23.360;2024-03-23T14:40:49;65.18;;;31.73;;
34741;SDS011;20968;42.696;23.360;2024-03-23T14:43:17;66.97;;;32.17;;
34741;SDS011;20968;42.696;23.360;2024-03-23T14:48:38;60.70;;;34.25;;
34741;SDS011;20968;42.696;23.360;2024-03-23T14:51:03;60.47;;;32.67;;
34741;SDS011;20968;42.696;23.360;2024-03-23T14:53:30;62.65;;;28.92;;
34741;SDS011;20968;42.696;23.360;2024-03-23T14:55:57;64.38;;;31.67;;
34741;SDS011;20968;42.696;23.360;2024-03-23T14:58:22;68.15;;;34.33;;
34741;SDS011;20968;42.696;23.360;2024-03-23T15:00:48;62.78;;;35.13;;
34741;SDS011;20968;42.696;23.360;2024-03-23T15:03:14;58.40;;;34.28;;
34741;SDS011;20968;42.696;23.360;2024-03-23T15:05:40;60.78;;;29.20;;